createdAt,value
2022-10-17T00:01:07.986Z,53.41
2022-10-17T00:03:38.107Z,53.30
2022-10-17T00:06:12.526Z,53.35
2022-10-17T00:08:42.793Z,53.18
2022-10-17T00:11:17.589Z,53.35
2022-10-17T00:13:49.631Z,53.51
2022-10-17T00:16:27.009Z,53.44
2022-10-17T00:18:55.367Z,53.20
2022-10-17T00:21:24.924Z,53.33
2022-10-17T00:23:53.744Z,53.19
2022-10-17T00:26:22.263Z,53.21
2022-10-17T00:28:52.815Z,53.32
2022-10-17T00:31:23.378Z,53.19
2022-10-17T00:33:52.177Z,53.09
2022-10-17T00:36:22.492Z,53.13
2022-10-17T00:38:58.625Z,53.41
2022-10-17T00:41:31.210Z,53.27
2022-10-17T00:44:03.117Z,53.29
2022-10-17T00:46:34.272Z,53.25
2022-10-17T00:49:10.140Z,53.41
2022-10-17T00:51:49.193Z,53.37
2022-10-17T00:54:20.521Z,53.35
2022-10-17T00:56:49.093Z,53.16
2022-10-17T00:59:20.842Z,52.97
2022-10-17T01:02:02.229Z,52.92
2022-10-17T01:04:30.018Z,52.71
2022-10-17T01:06:58.100Z,52.88
2022-10-17T01:09:27.486Z,52.70
2022-10-17T01:12:41.227Z,52.72
2022-10-17T01:15:17.161Z,52.31
2022-10-17T01:18:31.882Z,52.45
2022-10-17T01:21:12.397Z,52.14
2022-10-17T01:24:21.414Z,52.34
2022-10-17T01:27:10.490Z,51.97
2022-10-17T01:29:54.966Z,52.18
2022-10-17T01:32:36.260Z,52.34
2022-10-17T01:35:23.061Z,52.76
2022-10-17T01:38:36.903Z,52.46
2022-10-17T01:41:33.389Z,52.26
2022-10-17T01:44:35.448Z,52.67
2022-10-17T01:47:16.050Z,52.66
2022-10-17T01:49:46.625Z,52.48
2022-10-17T01:52:26.812Z,52.49
2022-10-17T01:55:04.571Z,52.33
2022-10-17T01:57:46.330Z,52.46
2022-10-17T02:00:24.274Z,52.37
2022-10-17T02:03:00.336Z,52.55
2022-10-17T02:05:41.488Z,52.55
2022-10-17T02:08:11.725Z,52.39
2022-10-17T02:10:55.088Z,52.42
2022-10-17T02:14:08.639Z,52.05
2022-10-17T02:16:44.673Z,52.01
2022-10-17T02:19:39.485Z,52.12
2022-10-17T02:22:10.037Z,51.96
2022-10-17T02:24:55.151Z,51.91
2022-10-17T02:27:38.259Z,51.99
2022-10-17T02:30:46.107Z,51.65
2022-10-17T02:33:23.111Z,51.71
2022-10-17T02:35:57.927Z,51.88
2022-10-17T02:38:29.416Z,51.61
2022-10-17T02:40:57.568Z,51.71
2022-10-17T02:43:26.073Z,51.72
2022-10-17T02:45:54.585Z,51.57
2022-10-17T02:48:37.139Z,51.82
2022-10-17T02:51:44.134Z,51.65
2022-10-17T02:54:30.337Z,51.65
2022-10-17T02:57:25.056Z,51.76
2022-10-17T02:59:53.588Z,51.47
2022-10-17T03:02:21.461Z,51.56
2022-10-17T03:04:49.336Z,51.81
2022-10-17T03:07:17.193Z,51.93
2022-10-17T03:09:45.219Z,51.63
2022-10-17T03:12:13.136Z,52.06
2022-10-17T03:14:40.991Z,51.90
2022-10-17T03:17:09.390Z,51.97
2022-10-17T03:19:37.236Z,51.98
2022-10-17T03:22:05.068Z,52.08
2022-10-17T03:24:34.889Z,52.08
2022-10-17T03:27:02.715Z,51.95
2022-10-17T03:29:31.076Z,51.89
2022-10-17T03:31:59.335Z,52.03
2022-10-17T03:34:27.157Z,51.94
2022-10-17T03:36:55.362Z,51.86
2022-10-17T03:39:24.078Z,51.97
2022-10-17T03:41:52.024Z,51.97
2022-10-17T03:44:19.831Z,51.98
2022-10-17T03:46:47.722Z,51.82
2022-10-17T03:49:16.077Z,51.93
2022-10-17T03:51:44.023Z,52.05
2022-10-17T03:54:15.097Z,52.11
2022-10-17T03:56:44.003Z,52.38
2022-10-17T03:59:15.997Z,52.49
2022-10-17T04:01:50.524Z,52.46
2022-10-17T04:04:19.468Z,52.47
2022-10-17T04:06:47.358Z,52.43
2022-10-17T04:09:15.846Z,52.53
2022-10-17T04:11:53.201Z,52.47
2022-10-17T04:14:22.363Z,52.55
2022-10-17T04:16:50.246Z,52.67
2022-10-17T04:19:21.474Z,52.87
2022-10-17T04:21:50.768Z,52.86
2022-10-17T04:24:20.136Z,53.00
2022-10-17T04:26:59.927Z,53.09
2022-10-17T04:29:30.579Z,53.25
2022-10-17T04:32:06.933Z,53.28
2022-10-17T04:34:50.169Z,53.21
2022-10-17T04:37:20.252Z,53.24
2022-10-17T04:39:50.615Z,53.17
2022-10-17T04:42:18.421Z,53.03
2022-10-17T04:44:46.919Z,53.17
2022-10-17T04:47:17.405Z,53.15
2022-10-17T04:49:45.546Z,53.14
2022-10-17T04:52:15.175Z,53.06
2022-10-17T04:55:00.688Z,53.14
2022-10-17T04:57:28.522Z,53.02
2022-10-17T05:00:05.673Z,52.93
2022-10-17T05:02:52.143Z,52.83
2022-10-17T05:05:21.031Z,52.81
2022-10-17T05:07:52.150Z,52.88
2022-10-17T05:10:23.664Z,52.88
2022-10-17T05:12:53.551Z,52.88
2022-10-17T05:15:24.348Z,52.80
2022-10-17T05:17:57.843Z,52.72
2022-10-17T05:20:28.297Z,52.69
2022-10-17T05:22:58.471Z,52.63
2022-10-17T05:25:29.266Z,52.74
2022-10-17T05:27:57.102Z,52.80
2022-10-17T05:30:25.068Z,52.77
2022-10-17T05:32:58.031Z,52.90
2022-10-17T05:35:25.976Z,52.85
2022-10-17T05:37:54.990Z,53.05
2022-10-17T05:40:25.433Z,53.15
2022-10-17T05:42:54.908Z,52.96
2022-10-17T05:45:23.907Z,52.96
2022-10-17T05:47:52.288Z,52.78
2022-10-17T05:50:22.126Z,52.97
2022-10-17T05:53:16.805Z,52.86
2022-10-17T05:55:57.870Z,53.00
2022-10-17T06:01:27.544Z,52.79
2022-10-17T06:03:55.369Z,52.93
2022-10-17T06:06:23.493Z,52.91
2022-10-17T06:08:52.178Z,52.88
2022-10-17T06:11:25.392Z,52.72
2022-10-17T06:13:53.214Z,52.84
2022-10-17T06:16:25.389Z,52.79
2022-10-17T06:18:53.220Z,52.87
2022-10-17T06:21:30.162Z,53.00
2022-10-17T06:24:06.177Z,52.83
2022-10-17T06:26:36.949Z,52.79
2022-10-17T06:29:08.053Z,52.98
2022-10-17T06:31:48.692Z,53.05
2022-10-17T06:34:17.121Z,53.05
2022-10-17T06:36:47.299Z,53.14
2022-10-17T06:39:15.622Z,53.18
2022-10-17T06:42:09.376Z,52.92
2022-10-17T06:44:47.315Z,52.93
2022-10-17T06:47:38.301Z,53.26
2022-10-17T06:50:32.021Z,53.19
2022-10-17T06:53:20.070Z,53.40
2022-10-17T06:56:14.442Z,53.46
2022-10-17T06:58:59.218Z,53.55
2022-10-17T07:01:32.592Z,53.32
2022-10-17T07:04:02.073Z,53.59
2022-10-17T07:06:32.432Z,53.65
2022-10-17T07:09:07.067Z,53.57
2022-10-17T07:11:37.499Z,53.75
2022-10-17T07:14:05.336Z,53.63
2022-10-17T07:16:35.029Z,53.66
2022-10-17T07:19:19.373Z,53.50
2022-10-17T07:21:47.636Z,53.64
2022-10-17T07:24:16.682Z,53.69
2022-10-17T07:26:48.946Z,53.45
2022-10-17T07:29:17.049Z,53.39
2022-10-17T07:31:59.324Z,53.14
2022-10-17T07:34:31.201Z,53.47
2022-10-17T07:36:58.972Z,53.24
2022-10-17T07:39:26.880Z,53.33
2022-10-17T07:41:56.016Z,53.37
2022-10-17T07:44:25.118Z,53.08
2022-10-17T07:46:54.893Z,53.23
2022-10-17T07:49:22.894Z,53.18
2022-10-17T07:51:50.920Z,53.50
2022-10-17T07:54:18.755Z,53.02
2022-10-17T07:56:50.585Z,52.50
2022-10-17T07:59:19.727Z,52.62
2022-10-17T08:01:47.629Z,52.50
2022-10-17T08:04:16.871Z,52.47
2022-10-17T08:06:44.713Z,52.82
2022-10-17T08:09:12.611Z,52.61
2022-10-17T08:11:40.456Z,52.60
2022-10-17T08:14:08.289Z,52.66
2022-10-17T08:16:36.356Z,52.88
2022-10-17T08:19:04.881Z,52.46
2022-10-17T08:21:32.733Z,52.48
2022-10-17T08:24:02.823Z,52.32
2022-10-17T08:26:30.826Z,52.36
2022-10-17T08:28:58.752Z,52.31
2022-10-17T08:31:27.398Z,52.48
2022-10-17T08:33:58.064Z,52.16
2022-10-17T08:36:25.878Z,52.46
2022-10-17T08:38:53.656Z,52.06
2022-10-17T08:41:46.085Z,52.27
2022-10-17T08:44:48.426Z,52.36
2022-10-17T08:47:29.411Z,51.79
2022-10-17T08:50:02.185Z,52.05
2022-10-17T08:52:55.782Z,51.82
2022-10-17T08:55:40.006Z,52.24
2022-10-17T08:58:33.334Z,51.90
2022-10-17T09:01:29.610Z,52.25
2022-10-17T09:07:36.812Z,52.57
2022-10-17T09:10:17.444Z,52.58
2022-10-17T09:13:09.920Z,52.62
2022-10-17T09:16:27.312Z,52.47
2022-10-17T09:19:08.768Z,52.76
2022-10-17T09:21:52.205Z,52.72
2022-10-17T09:24:33.677Z,52.26
2022-10-17T09:27:02.286Z,52.42
2022-10-17T09:29:35.460Z,51.96
2022-10-17T09:32:21.040Z,52.04
2022-10-17T09:34:49.420Z,52.05
2022-10-17T09:37:18.521Z,51.76
2022-10-17T09:39:46.669Z,51.49
2022-10-17T09:42:21.466Z,51.60
2022-10-17T09:45:16.668Z,51.50
2022-10-17T09:47:57.583Z,51.40
2022-10-17T09:50:31.401Z,51.39
2022-10-17T09:53:36.065Z,51.13
2022-10-17T09:56:11.833Z,50.99
2022-10-17T09:58:48.466Z,50.53
2022-10-17T10:01:31.140Z,50.70
2022-10-17T10:04:12.532Z,50.65
2022-10-17T10:07:00.413Z,50.57
2022-10-17T10:09:36.845Z,50.43
2022-10-17T10:12:22.880Z,50.59
2022-10-17T10:14:54.621Z,50.19
2022-10-17T10:17:44.427Z,50.18
2022-10-17T10:21:11.085Z,50.33
2022-10-17T10:23:44.867Z,49.73
2022-10-17T10:26:25.768Z,49.71
2022-10-17T10:28:59.044Z,49.37
2022-10-17T10:31:37.792Z,48.94
2022-10-17T10:34:20.569Z,48.43
2022-10-17T10:36:59.538Z,48.43
2022-10-17T10:39:55.084Z,48.58
2022-10-17T10:42:36.952Z,48.37
2022-10-17T10:45:29.245Z,48.28
2022-10-17T10:48:16.522Z,48.15
2022-10-17T10:50:57.472Z,47.71
2022-10-17T10:53:35.439Z,47.50
2022-10-17T10:56:22.978Z,47.58
2022-10-17T10:59:13.351Z,47.86
2022-10-17T11:02:16.608Z,47.61
2022-10-17T11:05:05.892Z,47.60
2022-10-17T11:07:46.849Z,47.45
2022-10-17T11:10:29.701Z,47.46
2022-10-17T11:13:19.332Z,46.32
2022-10-17T11:15:58.159Z,46.08
2022-10-17T11:18:52.590Z,46.80
2022-10-17T11:22:00.659Z,46.58
2022-10-17T11:24:43.115Z,46.14
2022-10-17T11:27:11.154Z,46.21
2022-10-17T11:29:42.225Z,46.34
2022-10-17T11:32:42.896Z,46.23
2022-10-17T11:35:36.784Z,46.38
2022-10-17T11:38:36.289Z,46.34
2022-10-17T11:41:05.912Z,45.16
2022-10-17T11:43:54.206Z,45.73
2022-10-17T11:46:26.134Z,45.08
2022-10-17T11:49:20.099Z,45.25
2022-10-17T11:52:51.321Z,46.43
2022-10-17T11:55:20.142Z,46.31
2022-10-17T11:58:32.711Z,47.06
2022-10-17T12:01:33.821Z,47.83
2022-10-17T12:04:20.018Z,48.61
2022-10-17T12:07:30.266Z,48.57
2022-10-17T12:10:31.398Z,48.23
2022-10-17T12:13:28.634Z,48.36
2022-10-17T12:16:36.987Z,48.26
2022-10-17T12:19:06.533Z,47.12
2022-10-17T12:21:55.876Z,47.24
2022-10-17T12:25:01.550Z,47.25
2022-10-17T12:27:48.518Z,47.36
2022-10-17T12:30:25.224Z,47.11
2022-10-17T12:33:22.452Z,47.43
2022-10-17T12:36:11.772Z,46.47
2022-10-17T12:38:39.610Z,45.57
2022-10-17T12:41:07.593Z,46.00
2022-10-17T12:47:04.020Z,44.44
2022-10-17T12:49:53.125Z,44.50
2022-10-17T12:52:32.898Z,44.70
2022-10-17T12:55:19.300Z,44.11
2022-10-17T12:58:10.885Z,43.91
2022-10-17T13:01:11.787Z,43.93
2022-10-17T13:03:46.152Z,44.08
2022-10-17T13:06:26.982Z,43.50
2022-10-17T13:09:17.712Z,42.93
2022-10-17T13:11:47.018Z,42.85
2022-10-17T13:14:19.791Z,41.94
2022-10-17T13:17:10.163Z,41.89
2022-10-17T13:19:45.153Z,39.71
2022-10-17T13:22:20.439Z,40.00
2022-10-17T13:24:50.588Z,39.33
2022-10-17T13:27:29.707Z,39.54
2022-10-17T13:30:01.460Z,38.52
2022-10-17T13:32:39.782Z,39.37
2022-10-17T13:35:24.410Z,39.16
2022-10-17T13:37:54.168Z,38.73
2022-10-17T13:40:49.528Z,38.54
2022-10-17T13:43:26.208Z,38.96
2022-10-17T13:46:38.050Z,38.78
2022-10-17T13:49:31.625Z,37.16
2022-10-17T13:52:04.820Z,37.98
2022-10-17T13:54:41.898Z,38.42
2022-10-17T13:57:23.163Z,38.49
2022-10-17T14:00:01.706Z,38.37
2022-10-17T14:02:41.893Z,38.51
2022-10-17T14:05:20.043Z,38.35
2022-10-17T14:08:21.759Z,38.75
2022-10-17T14:10:48.749Z,38.33
2022-10-17T14:13:35.926Z,38.06
2022-10-17T14:16:04.782Z,38.83
2022-10-17T14:18:36.873Z,38.68
2022-10-17T14:24:26.685Z,38.26
2022-10-17T14:26:59.149Z,38.54
2022-10-17T14:29:50.097Z,38.52
2022-10-17T14:32:18.610Z,38.32
2022-10-17T14:34:47.267Z,38.88
2022-10-17T14:37:46.332Z,39.02
2022-10-17T14:40:27.421Z,37.49
2022-10-17T14:42:59.208Z,37.81
2022-10-17T14:45:35.215Z,37.45
2022-10-17T14:48:22.478Z,37.89
2022-10-17T14:51:09.688Z,38.40
2022-10-17T14:53:39.620Z,37.21
2022-10-17T14:56:35.246Z,37.24
2022-10-17T14:59:07.562Z,36.91
2022-10-17T15:01:38.976Z,37.19
2022-10-17T15:04:10.777Z,37.01
2022-10-17T15:06:40.611Z,37.50
2022-10-17T15:09:10.152Z,37.61
2022-10-17T15:11:38.742Z,37.52
2022-10-17T15:14:06.577Z,37.95
2022-10-17T15:16:35.243Z,38.04
2022-10-17T15:19:03.087Z,38.27
2022-10-17T15:21:40.540Z,38.26
2022-10-17T15:24:10.408Z,38.30
2022-10-17T15:26:38.784Z,38.10
2022-10-17T15:29:07.646Z,38.40
2022-10-17T15:31:35.997Z,38.33
2022-10-17T15:34:03.822Z,38.32
2022-10-17T15:36:41.539Z,37.96
2022-10-17T15:39:10.901Z,38.88
2022-10-17T15:41:38.763Z,39.14
2022-10-17T15:44:06.709Z,39.06
2022-10-17T15:46:35.607Z,38.93
2022-10-17T15:49:09.300Z,39.43
2022-10-17T15:51:37.536Z,39.64
2022-10-17T15:54:06.338Z,39.87
2022-10-17T15:56:43.202Z,40.07
2022-10-17T15:59:22.461Z,40.13
2022-10-17T16:01:50.511Z,40.14
2022-10-17T16:04:18.952Z,40.49
2022-10-17T16:06:49.622Z,41.25
2022-10-17T16:09:25.443Z,41.50
2022-10-17T16:12:00.665Z,41.93
2022-10-17T16:14:35.376Z,41.76
2022-10-17T16:17:03.404Z,42.05
2022-10-17T16:19:42.682Z,42.16
2022-10-17T16:22:38.548Z,42.43
2022-10-17T16:25:21.574Z,42.34
2022-10-17T16:27:57.136Z,42.58
2022-10-17T16:30:29.688Z,43.13
2022-10-17T16:32:59.596Z,43.05
2022-10-17T16:35:34.841Z,43.44
2022-10-17T16:38:08.602Z,43.98
2022-10-17T16:40:41.002Z,43.60
2022-10-17T16:43:14.703Z,44.18
2022-10-17T16:45:43.364Z,44.19
2022-10-17T16:48:15.177Z,44.56
2022-10-17T16:50:48.792Z,44.70
2022-10-17T16:53:27.118Z,44.88
2022-10-17T16:56:05.262Z,45.03
2022-10-17T16:58:35.591Z,45.35
2022-10-17T17:01:28.405Z,45.24
2022-10-17T17:04:00.787Z,45.51
2022-10-17T17:06:31.879Z,45.99
2022-10-17T17:09:07.966Z,46.00
2022-10-17T17:11:41.895Z,46.08
2022-10-17T17:14:14.125Z,45.99
2022-10-17T17:16:43.381Z,46.07
2022-10-17T17:19:16.966Z,46.61
2022-10-17T17:21:50.078Z,46.97
2022-10-17T17:24:21.161Z,47.11
2022-10-17T17:26:54.791Z,47.29
2022-10-17T17:29:24.556Z,47.43
2022-10-17T17:31:52.532Z,47.22
2022-10-17T17:34:20.370Z,47.50
2022-10-17T17:36:48.170Z,47.38
2022-10-17T17:39:16.841Z,47.33
2022-10-17T17:41:45.768Z,47.48
2022-10-17T17:44:16.713Z,47.50
2022-10-17T17:46:45.707Z,47.65
2022-10-17T17:49:14.177Z,47.74
2022-10-17T17:51:46.076Z,47.84
2022-10-17T17:54:15.205Z,48.10
2022-10-17T17:56:43.106Z,47.93
2022-10-17T17:59:13.469Z,48.12
2022-10-17T18:01:41.665Z,48.19
2022-10-17T18:04:09.932Z,48.22
2022-10-17T18:06:38.873Z,48.78
2022-10-17T18:09:08.215Z,48.44
2022-10-17T18:11:37.496Z,48.62
2022-10-17T18:14:08.441Z,48.90
2022-10-17T18:16:37.655Z,48.82
2022-10-17T18:19:09.109Z,49.11
2022-10-17T18:21:37.895Z,49.15
2022-10-17T18:24:06.970Z,49.44
2022-10-17T18:26:35.073Z,49.65
2022-10-17T18:29:03.826Z,49.41
2022-10-17T18:31:37.467Z,49.49
2022-10-17T18:34:06.780Z,49.59
2022-10-17T18:36:35.577Z,49.58
2022-10-17T18:39:05.223Z,49.86
2022-10-17T18:41:33.745Z,49.48
2022-10-17T18:44:03.119Z,49.48
2022-10-17T18:46:41.015Z,49.57
2022-10-17T18:49:15.778Z,49.66
2022-10-17T18:51:43.602Z,49.73
2022-10-17T18:54:20.519Z,49.79
2022-10-17T18:56:52.142Z,50.02
2022-10-17T18:59:20.970Z,50.29
2022-10-17T19:01:48.944Z,49.89
2022-10-17T19:04:17.153Z,50.32
2022-10-17T19:06:45.257Z,50.29
2022-10-17T19:09:14.471Z,50.45
2022-10-17T19:11:42.930Z,50.61
2022-10-17T19:14:13.526Z,50.42
2022-10-17T19:16:49.076Z,50.58
2022-10-17T19:19:24.308Z,50.68
2022-10-17T19:21:53.217Z,50.58
2022-10-17T19:24:26.924Z,50.65
2022-10-17T19:26:57.950Z,51.27
2022-10-17T19:29:31.197Z,50.88
2022-10-17T19:32:00.564Z,50.84
2022-10-17T19:34:28.618Z,50.83
2022-10-17T19:36:56.396Z,50.93
2022-10-17T19:39:25.199Z,51.00
2022-10-17T19:41:53.034Z,51.43
2022-10-17T19:44:20.835Z,50.94
2022-10-17T19:46:49.331Z,51.04
2022-10-17T19:49:18.009Z,51.00
2022-10-17T19:51:46.545Z,51.43
2022-10-17T19:54:16.547Z,51.00
2022-10-17T19:56:44.385Z,50.91
2022-10-17T19:59:15.012Z,51.46
2022-10-17T20:01:43.956Z,51.36
2022-10-17T20:04:13.204Z,51.36
2022-10-17T20:06:41.816Z,51.58
2022-10-17T20:09:15.710Z,51.55
2022-10-17T20:11:45.253Z,51.25
2022-10-17T20:14:13.179Z,51.76
2022-10-17T20:16:40.964Z,51.22
2022-10-17T20:19:11.969Z,51.83
2022-10-17T20:21:40.300Z,51.88
2022-10-17T20:24:14.311Z,51.66
2022-10-17T20:26:42.853Z,51.86
2022-10-17T20:29:20.838Z,52.01
2022-10-17T20:31:48.882Z,51.76
2022-10-17T20:34:19.462Z,51.98
2022-10-17T20:36:48.408Z,52.13
2022-10-17T20:39:18.768Z,51.70
2022-10-17T20:41:47.233Z,51.80
2022-10-17T20:44:15.475Z,52.10
2022-10-17T20:47:00.707Z,52.07
2022-10-17T20:49:30.568Z,51.83
2022-10-17T20:51:59.706Z,51.50
2022-10-17T20:54:28.612Z,51.60
2022-10-17T20:56:58.723Z,51.82
2022-10-17T20:59:29.071Z,51.53
2022-10-17T21:01:56.884Z,51.68
2022-10-17T21:04:45.541Z,51.61
2022-10-17T21:07:12.539Z,51.51
2022-10-17T21:09:40.421Z,51.81
2022-10-17T21:12:08.301Z,51.77
2022-10-17T21:14:36.469Z,52.09
2022-10-17T21:17:05.477Z,51.47
2022-10-17T21:19:34.054Z,51.68
2022-10-17T21:22:01.950Z,52.01
2022-10-17T21:24:30.565Z,51.70
2022-10-17T21:26:59.073Z,51.69
2022-10-17T21:29:27.144Z,51.51
2022-10-17T21:31:54.997Z,51.87
2022-10-17T21:34:25.128Z,51.72
2022-10-17T21:36:53.531Z,51.76
2022-10-17T21:39:22.932Z,51.19
2022-10-17T21:41:52.018Z,51.34
2022-10-17T21:44:26.470Z,51.17
2022-10-17T21:46:55.752Z,51.11
2022-10-17T21:49:25.745Z,51.50
2022-10-17T21:51:53.809Z,51.13
2022-10-17T21:54:25.824Z,51.53
2022-10-17T21:56:53.610Z,51.51
2022-10-17T21:59:21.403Z,51.23
2022-10-17T22:01:49.267Z,51.33
2022-10-17T22:04:19.671Z,51.28
2022-10-17T22:06:51.301Z,51.21
2022-10-17T22:09:25.677Z,51.28
2022-10-17T22:11:56.640Z,51.39
2022-10-17T22:14:26.639Z,51.28
2022-10-17T22:16:55.532Z,51.58
2022-10-17T22:19:26.528Z,51.56
2022-10-17T22:21:54.883Z,51.16
2022-10-17T22:24:23.370Z,51.30
2022-10-17T22:26:51.710Z,51.32
2022-10-17T22:29:20.279Z,51.52
2022-10-17T22:31:48.246Z,51.14
2022-10-17T22:34:17.917Z,51.40
2022-10-17T22:36:47.829Z,50.96
2022-10-17T22:39:15.868Z,51.05
2022-10-17T22:41:43.976Z,51.29
2022-10-17T22:44:11.800Z,51.44
2022-10-17T22:46:39.571Z,51.39
2022-10-17T22:49:07.390Z,51.00
2022-10-17T22:51:35.202Z,51.39
2022-10-17T22:54:03.081Z,51.34
2022-10-17T22:56:30.973Z,51.22
2022-10-17T22:58:58.820Z,51.22
2022-10-17T23:01:26.929Z,51.27
2022-10-17T23:03:54.990Z,51.24
2022-10-17T23:06:23.253Z,51.13
2022-10-17T23:08:51.437Z,51.17
2022-10-17T23:11:20.827Z,51.44
2022-10-17T23:13:49.140Z,51.17
2022-10-17T23:16:17.156Z,51.07
2022-10-17T23:18:45.350Z,51.22
2022-10-17T23:21:13.219Z,51.69
2022-10-17T23:23:41.028Z,51.55
2022-10-17T23:26:13.869Z,51.42
2022-10-17T23:28:42.992Z,51.47
2022-10-17T23:31:19.760Z,51.41
2022-10-17T23:33:49.766Z,51.78
2022-10-17T23:36:20.620Z,51.63
2022-10-17T23:38:49.155Z,51.56
2022-10-17T23:41:17.304Z,51.48
2022-10-17T23:43:45.235Z,51.77
2022-10-17T23:46:13.501Z,51.67
2022-10-17T23:48:41.912Z,51.44
2022-10-17T23:51:11.125Z,51.42
2022-10-17T23:53:40.463Z,51.45
2022-10-17T23:56:10.276Z,51.54
2022-10-17T23:58:39.468Z,51.81
